Terminal Aerodrome Forecast
Issued by NWS

Home | Current Version | Previous Version | Text Only | Print | Product List | Glossary On
Versions: 1 2 3 4 5 6 7 8 9 10 11 12
000
FTUS44 KLIX 050520
TAFMSY
TAF
KMSY 050520Z 0506/0606 00000KT 6SM FU FEW002 SCT250
     FM051000 00000KT P6SM SCT020 BKN250
     FM051800 13008KT P6SM VCTS SCT040CB OVC250
     FM060000 19007KT P6SM OVC090=

USA.gov is the U.S. government's official web portal to all federal, state and local government web resources and services.